Time;durP1;ratioP1;P1;durP2;ratioP2;P2;SDS_P1;SDS_P2;PMS_P1;PMS_P2;Temp;Humidity;BMP_temperature;BMP_pressure;BME280_temperature;BME280_humidity;BME280_pressure;Samples;Min_cycle;Max_cycle;Signal;HPM_P1;HPM_P2
2021/11/28 00:01:43;;;;;;;;;;;3.50;99.90;;;;;;4345881;54;19970;-74
2021/11/28 00:05:59;;;;;;;;;;;3.50;99.90;;;;;;4346003;54;19958;-73
2021/11/28 00:14:38;;;;;;;;;;;3.60;99.90;;;;;;4346754;54;19961;-73
2021/11/28 00:18:40;;;;;;;;;;;3.60;99.90;;;;;;4347107;54;19954;-73
2021/11/28 00:22:43;;;;;;;;;;;3.60;99.90;;;;;;4345949;54;19969;-74
2021/11/28 00:26:45;;;;;;;;;;;3.60;99.90;;;;;;4344620;54;19942;-74
2021/11/28 00:30:47;;;;;;;;;;;3.60;99.90;;;;;;4344135;47;19954;-75
2021/11/28 00:34:50;;;;;;;;;;;3.70;99.90;;;;;;4346922;54;19939;-76
2021/11/28 00:38:52;;;;;;;;;;;3.70;99.90;;;;;;4345723;47;19950;-75
2021/11/28 00:42:56;;;;;;;;;;;3.70;99.90;;;;;;4345498;47;19973;-74
2021/11/28 00:46:58;;;;;;;;;;;4.10;99.90;;;;;;4344295;47;19994;-75
2021/11/28 00:51:49;;;;;;;;;;;3.70;99.90;;;;;;4347305;39;20727;-74
2021/11/28 00:55:27;;;;;;;;;;;3.70;99.90;;;;;;4345851;47;19950;-74
2021/11/28 00:59:29;;;;;;;;;;;3.80;99.90;;;;;;4347054;39;20711;-75
2021/11/28 01:07:48;;;;;;;;;;;3.70;99.90;;;;;;4351700;54;19969;-77
2021/11/28 01:11:51;;;;;;;;;;;4.00;99.90;;;;;;4351316;46;19950;-77
2021/11/28 01:15:53;;;;;;;;;;;3.80;99.90;;;;;;4350904;47;19947;-78
2021/11/28 01:19:56;;;;;;;;;;;3.80;99.90;;;;;;4350905;46;19962;-78
2021/11/28 01:23:58;;;;;;;;;;;3.80;99.90;;;;;;4350630;47;19939;-77
2021/11/28 01:28:01;;;;;;;;;;;3.80;99.90;;;;;;4350451;46;19953;-77
2021/11/28 01:32:04;;;;;;;;;;;3.80;99.90;;;;;;4350732;47;19972;-78
2021/11/28 01:36:06;;;;;;;;;;;3.80;99.90;;;;;;4350623;54;19946;-77
2021/11/28 01:40:12;;;;;;;;;;;3.80;99.90;;;;;;4350841;47;19946;-78
2021/11/28 01:44:15;;;;;;;;;;;3.80;99.90;;;;;;4350160;47;19990;-77
2021/11/28 01:48:17;;;;;;;;;;;3.80;99.90;;;;;;4349620;47;19939;-78
2021/11/28 01:52:20;;;;;;;;;;;3.80;99.90;;;;;;4351050;39;20614;-75
2021/11/28 01:56:23;;;;;;;;;;;3.80;99.90;;;;;;4349572;47;19951;-77
2021/11/28 02:00:28;;;;;;;;;;;3.80;99.90;;;;;;4349744;47;20063;-75
2021/11/28 02:04:30;;;;;;;;;;;3.80;99.90;;;;;;4349607;47;19950;-76
2021/11/28 02:08:32;;;;;;;;;;;3.90;99.90;;;;;;4349713;54;20002;-76
2021/11/28 02:12:35;;;;;;;;;;;3.70;99.90;;;;;;4350105;47;20466;-77
2021/11/28 02:16:37;;;;;;;;;;;3.60;99.90;;;;;;4350083;47;19943;-76
2021/11/28 02:20:43;;;;;;;;;;;3.60;99.90;;;;;;4349992;54;19946;-76
2021/11/28 02:24:46;;;;;;;;;;;3.60;99.90;;;;;;4350053;47;19939;-76
2021/11/28 02:28:48;;;;;;;;;;;3.60;99.90;;;;;;4351116;39;20584;-77
2021/11/28 02:32:51;;;;;;;;;;;3.90;99.90;;;;;;4350119;54;19958;-76
2021/11/28 02:36:53;;;;;;;;;;;3.60;99.90;;;;;;4350184;54;19923;-76
2021/11/28 02:40:56;;;;;;;;;;;3.40;99.90;;;;;;4350277;47;19945;-77
2021/11/28 02:44:58;;;;;;;;;;;3.60;99.90;;;;;;4349983;47;19945;-77
2021/11/28 02:49:00;;;;;;;;;;;3.60;99.90;;;;;;4350149;47;19969;-77
2021/11/28 02:53:04;;;;;;;;;;;3.60;99.90;;;;;;4349844;47;19938;-76
2021/11/28 02:57:10;;;;;;;;;;;3.50;99.90;;;;;;4350790;54;19980;-76
2021/11/28 03:01:13;;;;;;;;;;;3.60;99.90;;;;;;4350741;47;19950;-76
2021/11/28 03:05:36;;;;;;;;;;;3.60;99.90;;;;;;4351350;46;19947;-77
2021/11/28 03:09:38;;;;;;;;;;;3.60;99.90;;;;;;4350531;47;19963;-77
2021/11/28 03:13:42;;;;;;;;;;;3.60;99.90;;;;;;4351344;54;19958;-75
2021/11/28 03:17:44;;;;;;;;;;;3.50;99.90;;;;;;4350648;54;19962;-78
2021/11/28 03:21:49;;;;;;;;;;;3.50;99.90;;;;;;4352231;39;20694;-76
2021/11/28 03:26:02;;;;;;;;;;;3.40;99.90;;;;;;4351345;52;19946;-77
2021/11/28 03:30:04;;;;;;;;;;;3.50;99.90;;;;;;4351305;46;19939;-76
2021/11/28 03:34:27;;;;;;;;;;;3.40;99.90;;;;;;4350599;54;20014;-76
2021/11/28 03:38:30;;;;;;;;;;;3.50;99.90;;;;;;4350918;47;21009;-76
2021/11/28 03:42:32;;;;;;;;;;;3.30;99.90;;;;;;4350942;47;19975;-76
2021/11/28 03:46:34;;;;;;;;;;;3.40;99.90;;;;;;4351403;46;19990;-75
2021/11/28 03:50:36;;;;;;;;;;;3.40;99.90;;;;;;4350213;39;22879;-76
2021/11/28 03:54:40;;;;;;;;;;;3.40;99.90;;;;;;4350610;51;19950;-76
2021/11/28 03:58:43;;;;;;;;;;;3.40;99.90;;;;;;4350814;46;19938;-76
2021/11/28 04:02:45;;;;;;;;;;;3.30;99.90;;;;;;4350864;47;20018;-76
2021/11/28 04:06:50;;;;;;;;;;;3.40;99.90;;;;;;4351007;54;19961;-76
2021/11/28 04:10:54;;;;;;;;;;;2.10;99.90;;;;;;4349870;47;19957;-77
2021/11/28 04:14:57;;;;;;;;;;;3.30;99.90;;;;;;4350696;47;19950;-77
2021/11/28 04:19:00;;;;;;;;;;;3.40;99.90;;;;;;4351157;39;20451;-78
2021/11/28 04:23:02;;;;;;;;;;;3.40;99.90;;;;;;4350894;46;19947;-76
2021/11/28 04:27:04;;;;;;;;;;;3.40;99.90;;;;;;4351094;46;19947;-76
2021/11/28 04:31:06;;;;;;;;;;;3.40;99.90;;;;;;4350934;54;19972;-76
2021/11/28 04:35:09;;;;;;;;;;;3.40;99.90;;;;;;4350876;47;19987;-75
2021/11/28 04:39:11;;;;;;;;;;;3.40;99.90;;;;;;4351549;39;20511;-77
2021/11/28 04:43:13;;;;;;;;;;;3.30;99.90;;;;;;4350816;54;19986;-77
2021/11/28 04:47:18;;;;;;;;;;;3.40;99.90;;;;;;4350643;47;19922;-77
2021/11/28 04:51:33;;;;;;;;;;;3.30;99.90;;;;;;4350575;47;19954;-77
2021/11/28 04:55:35;;;;;;;;;;;3.00;99.90;;;;;;4350862;54;19939;-75
2021/11/28 04:59:37;;;;;;;;;;;3.30;99.90;;;;;;4350470;54;19942;-78
2021/11/28 05:03:39;;;;;;;;;;;3.40;99.90;;;;;;4350164;54;19963;-77
2021/11/28 05:08:11;;;;;;;;;;;3.30;99.90;;;;;;4349830;47;19923;-77
2021/11/28 05:12:13;;;;;;;;;;;3.20;99.90;;;;;;4350570;47;19939;-77
2021/11/28 05:16:17;;;;;;;;;;;3.20;99.90;;;;;;4350112;46;19973;-77
2021/11/28 05:20:37;;;;;;;;;;;3.20;99.90;;;;;;4351418;54;19938;-76
2021/11/28 05:24:39;;;;;;;;;;;3.20;99.90;;;;;;4350805;46;20017;-76
2021/11/28 05:28:41;;;;;;;;;;;3.20;99.90;;;;;;4350931;54;21772;-77
2021/11/28 05:32:43;;;;;;;;;;;3.20;99.90;;;;;;4350780;54;19975;-76
2021/11/28 05:37:11;;;;;;;;;;;2.90;99.90;;;;;;4350969;47;19947;-76
2021/11/28 05:41:15;;;;;;;;;;;2.90;99.90;;;;;;4351280;54;20600;-76
2021/11/28 05:45:20;;;;;;;;;;;3.00;99.90;;;;;;4350834;47;19954;-76
2021/11/28 05:49:41;;;;;;;;;;;3.00;99.90;;;;;;4350651;54;19983;-78
2021/11/28 05:53:46;;;;;;;;;;;3.00;99.90;;;;;;4350817;47;19972;-76
2021/11/28 05:57:50;;;;;;;;;;;3.30;99.90;;;;;;4356661;39;20535;-76
2021/11/28 06:01:59;;;;;;;;;;;3.10;99.90;;;;;;4350712;54;19977;-75
2021/11/28 06:06:01;;;;;;;;;;;3.10;99.90;;;;;;4350794;47;19938;-76
2021/11/28 06:10:23;;;;;;;;;;;3.10;99.90;;;;;;4350078;54;19974;-77
2021/11/28 06:14:26;;;;;;;;;;;3.10;99.90;;;;;;4350271;54;19994;-76
2021/11/28 06:18:46;;;;;;;;;;;3.10;99.90;;;;;;4351337;39;20232;-77
2021/11/28 06:23:08;;;;;;;;;;;3.10;99.90;;;;;;4349960;47;20583;-76
2021/11/28 06:27:10;;;;;;;;;;;3.40;99.90;;;;;;4352199;39;20668;-76
2021/11/28 06:31:12;;;;;;;;;;;3.20;99.90;;;;;;4351850;39;20416;-77
2021/11/28 06:35:34;;;;;;;;;;;3.00;99.90;;;;;;4351688;54;19946;-76
2021/11/28 06:40:06;;;;;;;;;;;3.00;99.90;;;;;;4351764;46;19946;-77
2021/11/28 06:44:15;;;;;;;;;;;3.00;99.90;;;;;;4351202;46;19964;-77
2021/11/28 06:48:17;;;;;;;;;;;3.00;99.90;;;;;;4351139;47;19970;-76
2021/11/28 06:52:44;;;;;;;;;;;3.00;99.90;;;;;;4351710;46;20608;-76
2021/11/28 06:57:13;;;;;;;;;;;3.00;99.90;;;;;;4350813;46;19942;-75
2021/11/28 07:01:15;;;;;;;;;;;3.00;99.90;;;;;;4350713;47;21268;-76
2021/11/28 07:05:29;;;;;;;;;;;3.00;99.90;;;;;;4350210;47;19946;-75
2021/11/28 07:09:31;;;;;;;;;;;3.00;99.90;;;;;;4350305;46;19973;-77
2021/11/28 07:13:33;;;;;;;;;;;3.20;99.90;;;;;;4350278;47;19970;-77
2021/11/28 07:17:35;;;;;;;;;;;3.40;99.90;;;;;;4350577;39;20519;-76
2021/11/28 07:21:38;;;;;;;;;;;3.70;99.90;;;;;;4349850;47;20588;-76
2021/11/28 07:25:43;;;;;;;;;;;3.80;99.90;;;;;;4349755;47;19951;-76
2021/11/28 07:30:00;;;;;;;;;;;4.00;99.90;;;;;;4349296;54;19938;-76
2021/11/28 07:34:02;;;;;;;;;;;3.90;99.90;;;;;;4349682;46;19964;-76
2021/11/28 07:38:23;;;;;;;;;;;4.00;99.90;;;;;;4352515;39;20468;-76
2021/11/28 07:42:26;;;;;;;;;;;4.10;99.90;;;;;;4349904;47;19938;-78
2021/11/28 07:46:48;;;;;;;;;;;4.00;99.90;;;;;;4350636;54;19947;-76
2021/11/28 07:50:58;;;;;;;;;;;3.80;99.90;;;;;;4350376;47;19964;-77
2021/11/28 07:55:04;;;;;;;;;;;3.80;99.90;;;;;;4350663;54;19946;-77
2021/11/28 07:59:36;;;;;;;;;;;3.70;99.90;;;;;;4350530;46;19954;-76
2021/11/28 08:03:42;;;;;;;;;;;3.70;99.90;;;;;;4350500;47;19944;-76
2021/11/28 08:08:04;;;;;;;;;;;3.80;99.90;;;;;;4350422;54;19976;-78
2021/11/28 08:12:32;;;;;;;;;;;4.20;99.90;;;;;;4350402;46;19994;-77
2021/11/28 08:16:34;;;;;;;;;;;3.70;99.90;;;;;;4350574;54;19946;-77
2021/11/28 08:20:36;;;;;;;;;;;3.60;99.90;;;;;;4351509;39;20535;-77
2021/11/28 08:24:38;;;;;;;;;;;3.50;99.90;;;;;;4350032;46;20619;-78
2021/11/28 08:28:41;;;;;;;;;;;3.30;99.90;;;;;;4350590;54;19975;-78
2021/11/28 08:32:44;;;;;;;;;;;3.20;99.90;;;;;;4351961;39;20366;-76
2021/11/28 08:37:05;;;;;;;;;;;2.60;99.90;;;;;;4350152;54;19949;-77
2021/11/28 08:41:07;;;;;;;;;;;3.10;99.90;;;;;;4350607;54;19927;-76
2021/11/28 08:45:11;;;;;;;;;;;3.10;99.90;;;;;;4350759;39;20438;-76
2021/11/28 08:49:15;;;;;;;;;;;3.10;99.90;;;;;;4350251;54;19938;-76
2021/11/28 08:53:17;;;;;;;;;;;3.00;99.90;;;;;;4349997;47;19942;-76
2021/11/28 08:57:21;;;;;;;;;;;4.50;99.90;;;;;;4349737;54;20377;-76
2021/11/28 09:01:23;;;;;;;;;;;3.10;99.90;;;;;;4350322;54;19949;-76
2021/11/28 09:05:25;;;;;;;;;;;3.10;99.90;;;;;;4351266;39;20197;-78
2021/11/28 09:09:28;;;;;;;;;;;3.20;99.90;;;;;;4349747;47;22147;-77
2021/11/28 09:13:30;;;;;;;;;;;3.30;99.90;;;;;;4350779;54;19943;-77
2021/11/28 09:17:32;;;;;;;;;;;3.30;99.90;;;;;;4350815;54;20752;-77
2021/11/28 09:21:34;;;;;;;;;;;3.40;99.90;;;;;;4351147;46;19946;-76
2021/11/28 09:25:36;;;;;;;;;;;4.00;99.90;;;;;;4351236;54;19998;-79
2021/11/28 09:29:40;;;;;;;;;;;3.30;99.90;;;;;;4350873;46;19939;-77
2021/11/28 09:33:42;;;;;;;;;;;3.70;99.90;;;;;;4354769;39;20175;-76
2021/11/28 09:37:44;;;;;;;;;;;3.20;99.90;;;;;;4359901;39;20472;-77
2021/11/28 09:41:50;;;;;;;;;;;3.20;99.90;;;;;;4351278;51;19939;-77
2021/11/28 09:45:53;;;;;;;;;;;3.30;99.90;;;;;;4351229;47;19947;-76
2021/11/28 09:49:56;;;;;;;;;;;3.30;99.90;;;;;;4351313;47;20734;-76
2021/11/28 09:54:00;;;;;;;;;;;3.40;99.90;;;;;;4354134;39;22640;-78
2021/11/28 09:58:02;;;;;;;;;;;3.90;99.90;;;;;;4351117;54;19973;-76
2021/11/28 10:02:06;;;;;;;;;;;3.30;99.90;;;;;;4351324;47;20932;-76
2021/11/28 10:06:08;;;;;;;;;;;3.20;99.90;;;;;;4352557;47;20635;-76
2021/11/28 10:10:11;;;;;;;;;;;3.20;99.90;;;;;;4351929;47;19939;-76
2021/11/28 10:14:14;;;;;;;;;;;3.20;99.90;;;;;;4352493;54;19967;-76
2021/11/28 10:18:16;;;;;;;;;;;3.90;99.90;;;;;;4357576;39;20702;-77
2021/11/28 10:22:18;;;;;;;;;;;3.30;99.90;;;;;;4352371;54;20643;-76
2021/11/28 10:26:20;;;;;;;;;;;3.20;99.90;;;;;;4351761;47;19946;-77
2021/11/28 10:30:31;;;;;;;;;;;3.20;99.90;;;;;;4351631;54;19946;-76
2021/11/28 10:34:36;;;;;;;;;;;3.20;99.90;;;;;;4352861;46;20819;-76
2021/11/28 10:38:40;;;;;;;;;;;3.10;99.90;;;;;;4352897;54;19938;-76
2021/11/28 10:42:42;;;;;;;;;;;3.20;99.90;;;;;;4352665;54;19942;-77
2021/11/28 10:46:46;;;;;;;;;;;3.20;99.90;;;;;;4352199;47;19946;-77
2021/11/28 10:50:48;;;;;;;;;;;3.20;99.90;;;;;;4353051;54;19950;-76
2021/11/28 10:54:50;;;;;;;;;;;3.20;99.90;;;;;;4352943;54;19983;-76
2021/11/28 10:59:14;;;;;;;;;;;3.20;99.90;;;;;;4352635;54;20566;-77
2021/11/28 11:03:19;;;;;;;;;;;3.30;99.90;;;;;;4352116;54;19945;-75
2021/11/28 11:07:24;;;;;;;;;;;3.30;99.90;;;;;;4353029;54;19977;-76
2021/11/28 11:11:35;;;;;;;;;;;3.30;99.90;;;;;;4352884;54;20048;-77
2021/11/28 11:15:37;;;;;;;;;;;3.30;99.90;;;;;;4355125;39;20652;-77
2021/11/28 11:19:47;;;;;;;;;;;3.50;99.90;;;;;;4352863;54;19954;-77
2021/11/28 11:23:50;;;;;;;;;;;3.20;99.90;;;;;;4352259;54;19957;-77
2021/11/28 11:27:52;;;;;;;;;;;3.20;99.90;;;;;;4353883;39;20171;-79
2021/11/28 11:31:55;;;;;;;;;;;3.80;99.90;;;;;;4351640;54;19950;-77
2021/11/28 11:35:57;;;;;;;;;;;3.20;99.90;;;;;;4351973;46;19963;-76
2021/11/28 11:40:00;;;;;;;;;;;3.20;99.90;;;;;;4351823;54;19942;-77
2021/11/28 11:44:02;;;;;;;;;;;3.20;99.90;;;;;;4352057;54;19998;-76
2021/11/28 11:48:05;;;;;;;;;;;3.30;99.90;;;;;;4351744;47;19952;-76
2021/11/28 11:52:10;;;;;;;;;;;3.40;99.90;;;;;;4352351;39;20744;-77
2021/11/28 11:56:16;;;;;;;;;;;3.30;99.90;;;;;;4351500;47;20709;-76
2021/11/28 12:00:27;;;;;;;;;;;3.10;99.90;;;;;;4351862;54;19942;-76
2021/11/28 12:04:40;;;;;;;;;;;3.30;99.90;;;;;;4351829;54;19943;-76
2021/11/28 12:08:53;;;;;;;;;;;3.40;99.90;;;;;;4351526;54;19950;-76
2021/11/28 12:12:56;;;;;;;;;;;3.30;99.90;;;;;;4351398;54;19942;-76
2021/11/28 12:16:59;;;;;;;;;;;3.30;99.90;;;;;;4351849;47;19999;-77
2021/11/28 12:21:05;;;;;;;;;;;3.70;99.90;;;;;;4351589;54;19943;-77
2021/11/28 12:25:26;;;;;;;;;;;3.30;99.90;;;;;;4351784;54;19930;-78
2021/11/28 12:29:38;;;;;;;;;;;3.30;99.90;;;;;;4351352;47;19947;-77
2021/11/28 12:33:49;;;;;;;;;;;3.40;99.90;;;;;;4351485;54;19967;-76
2021/11/28 12:37:51;;;;;;;;;;;3.40;99.90;;;;;;4351584;46;21260;-76
2021/11/28 12:41:56;;;;;;;;;;;3.40;99.90;;;;;;4351369;47;19979;-76
2021/11/28 12:45:58;;;;;;;;;;;3.40;99.90;;;;;;4351297;46;19977;-79
2021/11/28 12:50:14;;;;;;;;;;;3.40;99.90;;;;;;4351390;54;19950;-76
2021/11/28 12:54:26;;;;;;;;;;;3.40;99.90;;;;;;4351062;47;19939;-77
2021/11/28 12:58:28;;;;;;;;;;;3.40;99.90;;;;;;4351356;54;19942;-76
2021/11/28 13:02:57;;;;;;;;;;;3.50;99.90;;;;;;4351116;54;20878;-78
2021/11/28 13:07:25;;;;;;;;;;;3.50;99.90;;;;;;4351477;46;20002;-77
2021/11/28 13:11:28;;;;;;;;;;;3.50;99.90;;;;;;4351224;54;20703;-76
2021/11/28 13:15:32;;;;;;;;;;;3.50;99.90;;;;;;4351400;54;20015;-78
2021/11/28 13:19:34;;;;;;;;;;;3.40;99.90;;;;;;4350796;54;20685;-77
2021/11/28 13:23:57;;;;;;;;;;;3.40;99.90;;;;;;4351315;54;19969;-77
2021/11/28 13:28:28;;;;;;;;;;;3.50;99.90;;;;;;4351276;54;19963;-78
2021/11/28 13:32:30;;;;;;;;;;;3.50;99.90;;;;;;4351642;54;19943;-78
2021/11/28 13:36:51;;;;;;;;;;;3.40;99.90;;;;;;4351133;47;19923;-78
2021/11/28 13:41:02;;;;;;;;;;;3.40;99.90;;;;;;4351448;54;19926;-77
2021/11/28 13:45:11;;;;;;;;;;;3.30;99.90;;;;;;4351568;54;20011;-78
2021/11/28 13:49:17;;;;;;;;;;;3.30;99.90;;;;;;4351399;47;19939;-78
2021/11/28 13:53:19;;;;;;;;;;;3.30;99.90;;;;;;4351464;54;19950;-77
2021/11/28 13:57:25;;;;;;;;;;;3.30;99.90;;;;;;4351345;47;19950;-76
2021/11/28 14:01:26;;;;;;;;;;;3.30;99.90;;;;;;4351142;47;19963;-76
2021/11/28 14:05:29;;;;;;;;;;;3.20;99.90;;;;;;4350147;54;21116;-76
2021/11/28 14:09:31;;;;;;;;;;;3.30;99.90;;;;;;4350587;54;19942;-76
2021/11/28 14:13:34;;;;;;;;;;;3.30;99.90;;;;;;4351120;47;19939;-77
2021/11/28 14:17:36;;;;;;;;;;;3.10;99.90;;;;;;4351168;47;19950;-76
2021/11/28 14:21:39;;;;;;;;;;;3.30;99.90;;;;;;4350858;47;19939;-76
2021/11/28 14:25:45;;;;;;;;;;;3.20;99.90;;;;;;4351033;54;19943;-77
2021/11/28 14:29:57;;;;;;;;;;;3.10;99.90;;;;;;4359863;39;20540;-76
2021/11/28 14:33:59;;;;;;;;;;;3.20;99.90;;;;;;4350783;47;20945;-76
2021/11/28 14:38:11;;;;;;;;;;;0.70;99.90;;;;;;4350594;54;19991;-78
2021/11/28 14:42:14;;;;;;;;;;;3.60;99.90;;;;;;4350374;54;19943;-76
2021/11/28 14:46:21;;;;;;;;;;;3.10;99.90;;;;;;4350579;54;19943;-77
2021/11/28 14:50:23;;;;;;;;;;;3.30;99.90;;;;;;4351402;47;19954;-76
2021/11/28 14:54:29;;;;;;;;;;;3.20;99.90;;;;;;4352267;46;20001;-77
2021/11/28 14:58:31;;;;;;;;;;;4.00;99.90;;;;;;4351991;46;19943;-76
2021/11/28 15:02:34;;;;;;;;;;;3.20;99.90;;;;;;4351807;47;20949;-75
2021/11/28 15:06:51;;;;;;;;;;;3.30;99.90;;;;;;4351897;46;19934;-76
2021/11/28 15:10:54;;;;;;;;;;;3.20;99.90;;;;;;4351774;47;19946;-77
2021/11/28 15:15:01;;;;;;;;;;;3.20;99.90;;;;;;4351878;54;20015;-76
2021/11/28 15:19:13;;;;;;;;;;;3.30;99.90;;;;;;4352088;54;20816;-77
2021/11/28 15:23:15;;;;;;;;;;;3.10;99.90;;;;;;4351931;54;19969;-77
2021/11/28 15:27:17;;;;;;;;;;;3.20;99.90;;;;;;4351845;54;20865;-77
2021/11/28 15:31:19;;;;;;;;;;;3.10;99.90;;;;;;4351152;54;19927;-76
2021/11/28 15:35:22;;;;;;;;;;;3.30;99.90;;;;;;4350172;54;19942;-77
2021/11/28 15:39:24;;;;;;;;;;;3.30;99.90;;;;;;4350691;54;19968;-78
2021/11/28 15:43:26;;;;;;;;;;;3.30;99.90;;;;;;4350707;46;19939;-77
2021/11/28 15:47:28;;;;;;;;;;;3.50;99.90;;;;;;4351933;54;19942;-78
2021/11/28 15:51:30;;;;;;;;;;;3.40;99.90;;;;;;4352355;46;20642;-77
2021/11/28 15:55:33;;;;;;;;;;;3.60;99.90;;;;;;4351921;46;20702;-76
2021/11/28 15:59:36;;;;;;;;;;;3.40;99.90;;;;;;4353423;39;21021;-77
2021/11/28 16:03:38;;;;;;;;;;;3.40;99.90;;;;;;4351839;54;19934;-76
2021/11/28 16:07:42;;;;;;;;;;;3.50;99.90;;;;;;4351626;47;19942;-76
2021/11/28 16:11:44;;;;;;;;;;;3.40;99.90;;;;;;4352060;54;19950;-76
2021/11/28 16:15:46;;;;;;;;;;;3.40;99.90;;;;;;4351678;47;19964;-78
2021/11/28 16:19:49;;;;;;;;;;;3.50;99.90;;;;;;4351541;47;20053;-78
2021/11/28 16:23:51;;;;;;;;;;;3.50;99.90;;;;;;4351740;54;19971;-77
2021/11/28 16:27:53;;;;;;;;;;;3.50;99.90;;;;;;4351720;47;19939;-77
2021/11/28 16:31:55;;;;;;;;;;;3.50;99.90;;;;;;4351747;54;19955;-78
2021/11/28 16:35:57;;;;;;;;;;;3.50;99.90;;;;;;4351776;54;19927;-77
2021/11/28 16:39:59;;;;;;;;;;;3.50;99.90;;;;;;4351602;39;20714;-76
2021/11/28 16:44:02;;;;;;;;;;;3.60;99.90;;;;;;4351042;54;20032;-77
2021/11/28 16:48:04;;;;;;;;;;;3.60;99.90;;;;;;4352169;39;20776;-77
2021/11/28 16:52:07;;;;;;;;;;;3.70;99.90;;;;;;4351325;54;19949;-76
2021/11/28 16:56:10;;;;;;;;;;;3.60;99.90;;;;;;4351318;46;19938;-76
2021/11/28 17:00:13;;;;;;;;;;;3.60;99.90;;;;;;4351345;54;19946;-75
2021/11/28 17:04:15;;;;;;;;;;;3.70;99.90;;;;;;4351462;54;20079;-77
2021/11/28 17:08:17;;;;;;;;;;;3.80;99.90;;;;;;4351656;39;20616;-76
2021/11/28 17:12:21;;;;;;;;;;;3.70;99.90;;;;;;4351451;54;19950;-78
2021/11/28 17:16:30;;;;;;;;;;;4.00;99.90;;;;;;4351806;54;19966;-77
2021/11/28 17:20:32;;;;;;;;;;;3.60;99.90;;;;;;4351952;47;20002;-77
2021/11/28 17:24:47;;;;;;;;;;;3.60;99.90;;;;;;4351729;54;19927;-76
2021/11/28 17:28:50;;;;;;;;;;;3.60;99.90;;;;;;4351952;54;19962;-76
2021/11/28 17:32:53;;;;;;;;;;;3.50;99.90;;;;;;4351709;54;19943;-77
2021/11/28 17:36:55;;;;;;;;;;;3.60;99.90;;;;;;4356608;39;21043;-76
2021/11/28 17:40:57;;;;;;;;;;;3.40;99.90;;;;;;4351864;46;19923;-77
2021/11/28 17:44:59;;;;;;;;;;;3.30;99.90;;;;;;4351343;54;19967;-77
2021/11/28 17:49:01;;;;;;;;;;;3.20;99.90;;;;;;4356372;39;20536;-76
2021/11/28 17:53:04;;;;;;;;;;;3.40;99.90;;;;;;4351452;54;19943;-76
2021/11/28 17:57:06;;;;;;;;;;;3.00;99.90;;;;;;4351431;54;20701;-77
2021/11/28 18:01:07;;;;;;;;;;;3.00;99.90;;;;;;4351724;47;19962;-79
2021/11/28 18:05:12;;;;;;;;;;;3.20;99.90;;;;;;4352044;39;20887;-77
2021/11/28 18:09:14;;;;;;;;;;;2.80;99.90;;;;;;4351247;39;23286;-78
2021/11/28 18:13:16;;;;;;;;;;;2.80;99.90;;;;;;4351810;47;19939;-77
2021/11/28 18:17:19;;;;;;;;;;;3.50;99.90;;;;;;4350779;54;19967;-77
2021/11/28 18:21:21;;;;;;;;;;;2.80;99.90;;;;;;4351036;54;19970;-76
2021/11/28 18:25:23;;;;;;;;;;;2.70;99.90;;;;;;4351520;54;19950;-75
2021/11/28 18:29:25;;;;;;;;;;;2.70;99.90;;;;;;4352376;46;19946;-77
2021/11/28 18:33:29;;;;;;;;;;;2.90;99.90;;;;;;4351959;54;19967;-77
2021/11/28 18:37:31;;;;;;;;;;;2.90;99.90;;;;;;4352609;54;19943;-76
2021/11/28 18:41:34;;;;;;;;;;;2.50;99.90;;;;;;4353571;46;19943;-76
2021/11/28 18:45:36;;;;;;;;;;;2.70;99.90;;;;;;4352835;54;19943;-75
2021/11/28 18:49:38;;;;;;;;;;;2.90;99.90;;;;;;4353308;46;19968;-77
2021/11/28 18:53:41;;;;;;;;;;;2.30;99.90;;;;;;4357645;39;20563;-77
2021/11/28 18:57:44;;;;;;;;;;;2.30;99.90;;;;;;4352673;47;19983;-76
2021/11/28 19:01:48;;;;;;;;;;;2.30;99.90;;;;;;4353381;54;20005;-78
2021/11/28 19:05:50;;;;;;;;;;;2.30;99.90;;;;;;4353330;46;19947;-77
2021/11/28 19:09:52;;;;;;;;;;;2.40;99.90;;;;;;4352739;47;19939;-77
2021/11/28 19:13:55;;;;;;;;;;;2.20;99.90;;;;;;4353441;39;20667;-76
2021/11/28 19:17:58;;;;;;;;;;;2.30;99.90;;;;;;4356846;39;20645;-77
2021/11/28 19:22:00;;;;;;;;;;;2.30;99.90;;;;;;4353257;54;19948;-77
2021/11/28 19:26:03;;;;;;;;;;;3.20;99.90;;;;;;4352997;54;19927;-77
2021/11/28 19:30:06;;;;;;;;;;;2.30;99.90;;;;;;4352736;46;19986;-78
2021/11/28 19:34:08;;;;;;;;;;;2.40;99.90;;;;;;4351929;54;19942;-76
2021/11/28 19:38:10;;;;;;;;;;;2.30;99.90;;;;;;4352662;54;19934;-78
2021/11/28 19:42:13;;;;;;;;;;;2.30;99.90;;;;;;4352937;54;19939;-76
2021/11/28 19:46:15;;;;;;;;;;;2.30;99.90;;;;;;4353508;46;19947;-77
2021/11/28 19:50:23;;;;;;;;;;;2.30;99.90;;;;;;4352982;47;21037;-76
2021/11/28 19:54:25;;;;;;;;;;;2.30;99.90;;;;;;4352808;54;19950;-77
2021/11/28 19:58:27;;;;;;;;;;;2.30;99.90;;;;;;4352824;47;19946;-77
2021/11/28 20:02:29;;;;;;;;;;;2.20;99.90;;;;;;4355407;39;20602;-77
2021/11/28 20:06:32;;;;;;;;;;;2.30;99.90;;;;;;4352850;54;19927;-75
2021/11/28 20:10:36;;;;;;;;;;;2.30;99.90;;;;;;4352300;54;19946;-78
2021/11/28 20:14:38;;;;;;;;;;;2.30;99.90;;;;;;4352599;54;19967;-76
2021/11/28 20:18:40;;;;;;;;;;;2.30;99.90;;;;;;4352473;54;19943;-79
2021/11/28 20:22:42;;;;;;;;;;;2.60;99.90;;;;;;4352782;54;20045;-76
2021/11/28 20:26:45;;;;;;;;;;;2.30;99.90;;;;;;4352851;54;19942;-77
2021/11/28 20:30:47;;;;;;;;;;;2.40;99.90;;;;;;4353385;39;20551;-76
2021/11/28 20:34:49;;;;;;;;;;;2.30;99.90;;;;;;4352787;54;19942;-76
2021/11/28 20:38:51;;;;;;;;;;;3.00;99.90;;;;;;4354326;39;20496;-75
2021/11/28 20:42:54;;;;;;;;;;;2.30;99.90;;;;;;4352813;54;19951;-77
2021/11/28 20:46:56;;;;;;;;;;;1.90;99.90;;;;;;4352427;54;19942;-77
2021/11/28 20:50:59;;;;;;;;;;;2.30;99.90;;;;;;4352464;54;20645;-77
2021/11/28 20:55:07;;;;;;;;;;;2.20;99.90;;;;;;4352552;54;19938;-79
2021/11/28 20:59:10;;;;;;;;;;;2.20;99.90;;;;;;4352594;47;20023;-78
2021/11/28 21:03:15;;;;;;;;;;;2.20;99.90;;;;;;4353485;39;20625;-76
2021/11/28 21:07:17;;;;;;;;;;;2.30;99.90;;;;;;4352676;47;20659;-76
2021/11/28 21:11:19;;;;;;;;;;;2.30;99.90;;;;;;4352258;46;19946;-76
2021/11/28 21:15:22;;;;;;;;;;;2.20;99.90;;;;;;4353600;31;20658;-80
2021/11/28 21:19:24;;;;;;;;;;;2.30;99.90;;;;;;4352203;47;19934;-78
2021/11/28 21:23:27;;;;;;;;;;;2.30;99.90;;;;;;4352394;46;20771;-76
2021/11/28 21:27:29;;;;;;;;;;;2.30;99.90;;;;;;4352098;46;19995;-76
2021/11/28 21:31:31;;;;;;;;;;;2.40;99.90;;;;;;4352897;39;21257;-76
2021/11/28 21:35:33;;;;;;;;;;;2.40;99.90;;;;;;4352171;54;19931;-75
2021/11/28 21:39:35;;;;;;;;;;;2.50;99.90;;;;;;4351991;47;19961;-76
2021/11/28 21:43:37;;;;;;;;;;;2.50;99.90;;;;;;4353140;39;20583;-76
2021/11/28 21:47:39;;;;;;;;;;;2.50;99.90;;;;;;4352213;54;19951;-76
2021/11/28 21:51:41;;;;;;;;;;;2.50;99.90;;;;;;4352338;54;19942;-76
2021/11/28 21:55:47;;;;;;;;;;;2.50;99.90;;;;;;4355115;39;20661;-76
2021/11/28 21:59:49;;;;;;;;;;;2.50;99.90;;;;;;4352205;54;19939;-76
2021/11/28 22:03:52;;;;;;;;;;;2.60;99.90;;;;;;4354096;39;20623;-76
2021/11/28 22:07:54;;;;;;;;;;;2.50;99.90;;;;;;4351734;47;19946;-76
2021/11/28 22:11:56;;;;;;;;;;;2.50;99.90;;;;;;4352153;54;19942;-77
2021/11/28 22:15:58;;;;;;;;;;;2.50;99.90;;;;;;4351863;54;19946;-76
2021/11/28 22:20:01;;;;;;;;;;;2.50;99.90;;;;;;4351958;54;19967;-77
2021/11/28 22:24:03;;;;;;;;;;;2.50;99.90;;;;;;4351951;54;19935;-77
2021/11/28 22:28:07;;;;;;;;;;;2.40;99.90;;;;;;4351889;47;19952;-76
2021/11/28 22:32:10;;;;;;;;;;;2.40;99.90;;;;;;4351737;54;19951;-76
2021/11/28 22:36:12;;;;;;;;;;;2.50;99.90;;;;;;4351816;54;19966;-77
2021/11/28 22:40:15;;;;;;;;;;;2.50;99.90;;;;;;4351870;54;19954;-76
2021/11/28 22:44:19;;;;;;;;;;;2.50;99.90;;;;;;4351909;54;19998;-77
2021/11/28 22:48:21;;;;;;;;;;;2.50;99.90;;;;;;4351871;47;19939;-76
